sensor_id;sensor_type;location;lat;lon;timestamp;P1;durP1;ratioP1;P2;durP2;ratioP2
2750;SDS011;1383;48.362;10.908;2022-11-11T00:01:07;8.07;;;7.15;;
2750;SDS011;1383;48.362;10.908;2022-11-11T00:03:34;9.07;;;7.57;;
2750;SDS011;1383;48.362;10.908;2022-11-11T00:06:04;8.43;;;7.40;;
2750;SDS011;1383;48.362;10.908;2022-11-11T00:08:33;8.90;;;8.00;;
2750;SDS011;1383;48.362;10.908;2022-11-11T00:11:01;11.05;;;7.90;;
2750;SDS011;1383;48.362;10.908;2022-11-11T00:13:30;10.50;;;7.40;;
2750;SDS011;1383;48.362;10.908;2022-11-11T00:16:08;10.18;;;7.93;;
2750;SDS011;1383;48.362;10.908;2022-11-11T00:18:36;9.00;;;7.43;;
2750;SDS011;1383;48.362;10.908;2022-11-11T00:21:22;8.35;;;7.45;;
2750;SDS011;1383;48.362;10.908;2022-11-11T00:24:23;9.30;;;7.15;;
2750;SDS011;1383;48.362;10.908;2022-11-11T00:27:10;7.82;;;7.07;;
2750;SDS011;1383;48.362;10.908;2022-11-11T00:29:38;7.95;;;7.20;;
2750;SDS011;1383;48.362;10.908;2022-11-11T00:32:06;7.53;;;6.85;;
2750;SDS011;1383;48.362;10.908;2022-11-11T00:34:49;11.43;;;8.25;;
2750;SDS011;1383;48.362;10.908;2022-11-11T00:37:35;9.10;;;8.05;;
2750;SDS011;1383;48.362;10.908;2022-11-11T00:40:02;11.65;;;8.07;;
2750;SDS011;1383;48.362;10.908;2022-11-11T00:42:30;8.80;;;7.65;;
2750;SDS011;1383;48.362;10.908;2022-11-11T00:44:56;11.90;;;8.95;;
2750;SDS011;1383;48.362;10.908;2022-11-11T00:47:23;11.15;;;8.52;;
2750;SDS011;1383;48.362;10.908;2022-11-11T00:50:13;10.07;;;7.40;;
2750;SDS011;1383;48.362;10.908;2022-11-11T00:53:06;9.02;;;8.15;;
2750;SDS011;1383;48.362;10.908;2022-11-11T00:55:35;10.07;;;9.10;;
2750;SDS011;1383;48.362;10.908;2022-11-11T00:58:02;10.10;;;8.75;;
2750;SDS011;1383;48.362;10.908;2022-11-11T01:00:29;9.60;;;8.60;;
2750;SDS011;1383;48.362;10.908;2022-11-11T01:02:56;10.50;;;8.68;;
2750;SDS011;1383;48.362;10.908;2022-11-11T01:05:24;13.45;;;9.85;;
2750;SDS011;1383;48.362;10.908;2022-11-11T01:07:51;11.38;;;9.80;;
2750;SDS011;1383;48.362;10.908;2022-11-11T01:10:18;10.90;;;9.73;;
2750;SDS011;1383;48.362;10.908;2022-11-11T01:13:05;11.00;;;10.00;;
2750;SDS011;1383;48.362;10.908;2022-11-11T01:15:48;13.10;;;10.40;;
2750;SDS011;1383;48.362;10.908;2022-11-11T01:18:18;12.38;;;10.85;;
2750;SDS011;1383;48.362;10.908;2022-11-11T01:20:46;12.40;;;11.02;;
2750;SDS011;1383;48.362;10.908;2022-11-11T01:23:14;12.07;;;10.85;;
2750;SDS011;1383;48.362;10.908;2022-11-11T01:25:41;11.82;;;10.43;;
2750;SDS011;1383;48.362;10.908;2022-11-11T01:28:08;12.38;;;11.07;;
2750;SDS011;1383;48.362;10.908;2022-11-11T01:30:35;10.30;;;9.30;;
2750;SDS011;1383;48.362;10.908;2022-11-11T01:33:02;12.43;;;11.05;;
2750;SDS011;1383;48.362;10.908;2022-11-11T01:35:30;11.05;;;9.95;;
2750;SDS011;1383;48.362;10.908;2022-11-11T01:37:57;12.93;;;10.55;;
2750;SDS011;1383;48.362;10.908;2022-11-11T01:40:25;11.05;;;9.65;;
2750;SDS011;1383;48.362;10.908;2022-11-11T01:42:53;13.65;;;10.25;;
2750;SDS011;1383;48.362;10.908;2022-11-11T01:45:45;12.25;;;10.63;;
2750;SDS011;1383;48.362;10.908;2022-11-11T01:48:30;13.50;;;11.27;;
2750;SDS011;1383;48.362;10.908;2022-11-11T01:53:51;12.65;;;10.30;;
2750;SDS011;1383;48.362;10.908;2022-11-11T01:56:22;12.88;;;10.80;;
2750;SDS011;1383;48.362;10.908;2022-11-11T01:58:50;14.52;;;13.07;;
2750;SDS011;1383;48.362;10.908;2022-11-11T02:01:21;21.45;;;11.38;;
2750;SDS011;1383;48.362;10.908;2022-11-11T02:03:48;14.93;;;10.45;;
2750;SDS011;1383;48.362;10.908;2022-11-11T02:06:35;11.10;;;8.32;;
2750;SDS011;1383;48.362;10.908;2022-11-11T02:09:03;11.27;;;8.88;;
2750;SDS011;1383;48.362;10.908;2022-11-11T02:11:32;14.40;;;8.18;;
2750;SDS011;1383;48.362;10.908;2022-11-11T02:14:20;9.50;;;8.15;;
2750;SDS011;1383;48.362;10.908;2022-11-11T02:17:03;9.30;;;7.63;;
2750;SDS011;1383;48.362;10.908;2022-11-11T02:19:47;8.30;;;7.50;;
2750;SDS011;1383;48.362;10.908;2022-11-11T02:22:22;11.55;;;8.65;;
2750;SDS011;1383;48.362;10.908;2022-11-11T02:24:57;10.05;;;7.32;;
2750;SDS011;1383;48.362;10.908;2022-11-11T02:27:25;9.20;;;7.82;;
2750;SDS011;1383;48.362;10.908;2022-11-11T02:29:54;9.70;;;8.80;;
2750;SDS011;1383;48.362;10.908;2022-11-11T02:32:23;11.30;;;9.57;;
2750;SDS011;1383;48.362;10.908;2022-11-11T02:34:50;10.45;;;8.20;;
2750;SDS011;1383;48.362;10.908;2022-11-11T02:37:21;9.23;;;8.32;;
2750;SDS011;1383;48.362;10.908;2022-11-11T02:39:49;9.43;;;8.18;;
2750;SDS011;1383;48.362;10.908;2022-11-11T02:42:29;9.38;;;8.40;;
2750;SDS011;1383;48.362;10.908;2022-11-11T02:44:56;7.63;;;6.97;;
2750;SDS011;1383;48.362;10.908;2022-11-11T02:47:24;11.25;;;7.57;;
2750;SDS011;1383;48.362;10.908;2022-11-11T02:49:52;13.10;;;8.20;;
2750;SDS011;1383;48.362;10.908;2022-11-11T02:52:19;9.10;;;7.72;;
2750;SDS011;1383;48.362;10.908;2022-11-11T02:54:46;9.75;;;8.95;;
2750;SDS011;1383;48.362;10.908;2022-11-11T02:57:14;9.07;;;7.47;;
2750;SDS011;1383;48.362;10.908;2022-11-11T02:59:42;9.23;;;8.05;;
2750;SDS011;1383;48.362;10.908;2022-11-11T03:02:09;8.73;;;7.43;;
2750;SDS011;1383;48.362;10.908;2022-11-11T03:04:35;8.18;;;6.97;;
2750;SDS011;1383;48.362;10.908;2022-11-11T03:07:03;9.30;;;7.30;;
2750;SDS011;1383;48.362;10.908;2022-11-11T03:09:31;7.80;;;6.88;;
2750;SDS011;1383;48.362;10.908;2022-11-11T03:11:58;9.13;;;7.55;;
2750;SDS011;1383;48.362;10.908;2022-11-11T03:14:25;8.35;;;7.45;;
2750;SDS011;1383;48.362;10.908;2022-11-11T03:16:52;9.60;;;8.15;;
2750;SDS011;1383;48.362;10.908;2022-11-11T03:19:37;9.85;;;7.57;;
2750;SDS011;1383;48.362;10.908;2022-11-11T03:22:05;9.10;;;8.20;;
2750;SDS011;1383;48.362;10.908;2022-11-11T03:24:51;8.68;;;7.00;;
2750;SDS011;1383;48.362;10.908;2022-11-11T03:27:37;10.98;;;7.25;;
2750;SDS011;1383;48.362;10.908;2022-11-11T03:30:04;7.95;;;6.82;;
2750;SDS011;1383;48.362;10.908;2022-11-11T03:32:31;9.05;;;7.68;;
2750;SDS011;1383;48.362;10.908;2022-11-11T03:34:58;10.43;;;9.40;;
2750;SDS011;1383;48.362;10.908;2022-11-11T03:37:24;10.55;;;7.45;;
2750;SDS011;1383;48.362;10.908;2022-11-11T03:40:10;9.65;;;7.22;;
2750;SDS011;1383;48.362;10.908;2022-11-11T03:42:37;9.40;;;7.75;;
2750;SDS011;1383;48.362;10.908;2022-11-11T03:45:04;10.70;;;9.68;;
2750;SDS011;1383;48.362;10.908;2022-11-11T03:47:31;11.23;;;8.25;;
2750;SDS011;1383;48.362;10.908;2022-11-11T03:49:57;9.27;;;8.25;;
2750;SDS011;1383;48.362;10.908;2022-11-11T03:52:24;10.20;;;8.05;;
2750;SDS011;1383;48.362;10.908;2022-11-11T03:54:51;8.70;;;7.03;;
2750;SDS011;1383;48.362;10.908;2022-11-11T03:57:18;9.40;;;8.50;;
2750;SDS011;1383;48.362;10.908;2022-11-11T03:59:57;8.13;;;7.43;;
2750;SDS011;1383;48.362;10.908;2022-11-11T04:02:24;10.23;;;6.72;;
2750;SDS011;1383;48.362;10.908;2022-11-11T04:05:09;7.93;;;7.13;;
2750;SDS011;1383;48.362;10.908;2022-11-11T04:07:55;10.55;;;7.80;;
2750;SDS011;1383;48.362;10.908;2022-11-11T04:10:40;9.35;;;6.50;;
2750;SDS011;1383;48.362;10.908;2022-11-11T04:13:07;8.85;;;7.10;;
2750;SDS011;1383;48.362;10.908;2022-11-11T04:15:52;8.73;;;7.35;;
2750;SDS011;1383;48.362;10.908;2022-11-11T04:18:31;8.30;;;7.57;;
2750;SDS011;1383;48.362;10.908;2022-11-11T04:21:17;9.10;;;7.25;;
2750;SDS011;1383;48.362;10.908;2022-11-11T04:24:03;11.30;;;7.55;;
2750;SDS011;1383;48.362;10.908;2022-11-11T04:26:52;10.07;;;8.13;;
2750;SDS011;1383;48.362;10.908;2022-11-11T04:29:20;10.32;;;9.07;;
2750;SDS011;1383;48.362;10.908;2022-11-11T04:34:47;9.90;;;8.73;;
2750;SDS011;1383;48.362;10.908;2022-11-11T04:37:15;9.60;;;7.55;;
2750;SDS011;1383;48.362;10.908;2022-11-11T04:39:43;10.57;;;9.18;;
2750;SDS011;1383;48.362;10.908;2022-11-11T04:42:28;10.38;;;8.10;;
2750;SDS011;1383;48.362;10.908;2022-11-11T04:44:56;13.40;;;8.07;;
2750;SDS011;1383;48.362;10.908;2022-11-11T04:47:55;14.10;;;10.43;;
2750;SDS011;1383;48.362;10.908;2022-11-11T04:50:46;14.40;;;8.68;;
2750;SDS011;1383;48.362;10.908;2022-11-11T04:53:12;12.65;;;9.70;;
2750;SDS011;1383;48.362;10.908;2022-11-11T04:55:40;12.63;;;9.77;;
2750;SDS011;1383;48.362;10.908;2022-11-11T04:58:29;12.10;;;8.70;;
2750;SDS011;1383;48.362;10.908;2022-11-11T05:00:57;12.32;;;8.80;;
2750;SDS011;1383;48.362;10.908;2022-11-11T05:03:24;14.20;;;10.88;;
2750;SDS011;1383;48.362;10.908;2022-11-11T05:05:52;14.75;;;9.70;;
2750;SDS011;1383;48.362;10.908;2022-11-11T05:08:45;15.30;;;9.48;;
2750;SDS011;1383;48.362;10.908;2022-11-11T05:11:23;13.10;;;9.25;;
2750;SDS011;1383;48.362;10.908;2022-11-11T05:13:54;14.82;;;10.27;;
2750;SDS011;1383;48.362;10.908;2022-11-11T05:16:42;18.13;;;10.82;;
2750;SDS011;1383;48.362;10.908;2022-11-11T05:19:32;16.13;;;10.73;;
2750;SDS011;1383;48.362;10.908;2022-11-11T05:22:31;13.63;;;9.70;;
2750;SDS011;1383;48.362;10.908;2022-11-11T05:25:00;13.25;;;10.20;;
2750;SDS011;1383;48.362;10.908;2022-11-11T05:27:45;12.30;;;9.50;;
2750;SDS011;1383;48.362;10.908;2022-11-11T05:30:13;11.98;;;9.50;;
2750;SDS011;1383;48.362;10.908;2022-11-11T05:32:41;13.00;;;8.80;;
2750;SDS011;1383;48.362;10.908;2022-11-11T05:35:08;23.55;;;13.80;;
2750;SDS011;1383;48.362;10.908;2022-11-11T05:37:37;46.05;;;21.52;;
2750;SDS011;1383;48.362;10.908;2022-11-11T05:40:04;24.00;;;15.43;;
2750;SDS011;1383;48.362;10.908;2022-11-11T05:42:32;15.77;;;11.68;;
2750;SDS011;1383;48.362;10.908;2022-11-11T05:44:59;11.23;;;9.55;;
2750;SDS011;1383;48.362;10.908;2022-11-11T05:47:25;11.00;;;9.85;;
2750;SDS011;1383;48.362;10.908;2022-11-11T05:49:52;11.07;;;8.05;;
2750;SDS011;1383;48.362;10.908;2022-11-11T05:52:19;11.45;;;9.30;;
2750;SDS011;1383;48.362;10.908;2022-11-11T05:54:46;11.55;;;9.05;;
2750;SDS011;1383;48.362;10.908;2022-11-11T05:57:12;11.70;;;9.43;;
2750;SDS011;1383;48.362;10.908;2022-11-11T05:59:39;12.13;;;8.90;;
2750;SDS011;1383;48.362;10.908;2022-11-11T06:02:06;9.23;;;8.32;;
2750;SDS011;1383;48.362;10.908;2022-11-11T06:04:34;9.23;;;8.30;;
2750;SDS011;1383;48.362;10.908;2022-11-11T06:07:01;11.30;;;8.52;;
2750;SDS011;1383;48.362;10.908;2022-11-11T06:09:28;10.07;;;8.85;;
2750;SDS011;1383;48.362;10.908;2022-11-11T06:11:55;9.32;;;8.43;;
2750;SDS011;1383;48.362;10.908;2022-11-11T06:14:22;11.20;;;8.45;;
2750;SDS011;1383;48.362;10.908;2022-11-11T06:16:48;10.25;;;9.05;;
2750;SDS011;1383;48.362;10.908;2022-11-11T06:19:15;11.60;;;8.05;;
2750;SDS011;1383;48.362;10.908;2022-11-11T06:21:42;10.40;;;9.30;;
2750;SDS011;1383;48.362;10.908;2022-11-11T06:24:24;10.63;;;8.68;;
2750;SDS011;1383;48.362;10.908;2022-11-11T06:26:52;10.23;;;8.57;;
2750;SDS011;1383;48.362;10.908;2022-11-11T06:29:20;9.77;;;8.48;;
2750;SDS011;1383;48.362;10.908;2022-11-11T06:31:47;10.30;;;9.05;;
2750;SDS011;1383;48.362;10.908;2022-11-11T06:34:14;10.38;;;9.35;;
2750;SDS011;1383;48.362;10.908;2022-11-11T06:36:41;9.38;;;8.45;;
2750;SDS011;1383;48.362;10.908;2022-11-11T06:39:07;11.45;;;9.13;;
2750;SDS011;1383;48.362;10.908;2022-11-11T06:41:34;9.90;;;8.02;;
2750;SDS011;1383;48.362;10.908;2022-11-11T06:44:01;11.55;;;9.85;;
2750;SDS011;1383;48.362;10.908;2022-11-11T06:46:27;10.75;;;9.13;;
2750;SDS011;1383;48.362;10.908;2022-11-11T06:48:55;12.98;;;9.82;;
2750;SDS011;1383;48.362;10.908;2022-11-11T06:51:22;10.77;;;7.18;;
2750;SDS011;1383;48.362;10.908;2022-11-11T06:53:49;8.00;;;7.20;;
2750;SDS011;1383;48.362;10.908;2022-11-11T06:56:16;12.40;;;8.77;;
2750;SDS011;1383;48.362;10.908;2022-11-11T06:58:43;9.85;;;7.45;;
2750;SDS011;1383;48.362;10.908;2022-11-11T07:01:10;11.38;;;7.88;;
2750;SDS011;1383;48.362;10.908;2022-11-11T07:03:39;9.27;;;8.30;;
2750;SDS011;1383;48.362;10.908;2022-11-11T07:06:06;9.25;;;8.00;;
2750;SDS011;1383;48.362;10.908;2022-11-11T07:08:33;8.30;;;7.50;;
2750;SDS011;1383;48.362;10.908;2022-11-11T07:11:00;9.88;;;7.53;;
2750;SDS011;1383;48.362;10.908;2022-11-11T07:13:37;9.93;;;8.18;;
2750;SDS011;1383;48.362;10.908;2022-11-11T07:16:04;8.13;;;7.43;;
2750;SDS011;1383;48.362;10.908;2022-11-11T07:18:31;9.50;;;6.65;;
2750;SDS011;1383;48.362;10.908;2022-11-11T07:20:58;8.32;;;7.10;;
2750;SDS011;1383;48.362;10.908;2022-11-11T07:23:25;9.15;;;7.53;;
2750;SDS011;1383;48.362;10.908;2022-11-11T07:25:52;10.35;;;7.20;;
2750;SDS011;1383;48.362;10.908;2022-11-11T07:28:18;9.60;;;8.20;;
2750;SDS011;1383;48.362;10.908;2022-11-11T07:30:45;12.63;;;8.13;;
2750;SDS011;1383;48.362;10.908;2022-11-11T07:33:12;10.10;;;9.10;;
2750;SDS011;1383;48.362;10.908;2022-11-11T07:35:39;11.02;;;8.75;;
2750;SDS011;1383;48.362;10.908;2022-11-11T07:38:05;10.95;;;9.25;;
2750;SDS011;1383;48.362;10.908;2022-11-11T07:40:32;11.85;;;9.60;;
2750;SDS011;1383;48.362;10.908;2022-11-11T07:42:59;10.05;;;8.85;;
2750;SDS011;1383;48.362;10.908;2022-11-11T07:45:25;10.77;;;9.35;;
2750;SDS011;1383;48.362;10.908;2022-11-11T07:47:52;10.90;;;9.80;;
2750;SDS011;1383;48.362;10.908;2022-11-11T07:50:19;11.10;;;9.48;;
2750;SDS011;1383;48.362;10.908;2022-11-11T07:52:49;10.48;;;9.45;;
2750;SDS011;1383;48.362;10.908;2022-11-11T07:55:16;11.63;;;9.95;;
2750;SDS011;1383;48.362;10.908;2022-11-11T07:57:43;10.05;;;8.50;;
2750;SDS011;1383;48.362;10.908;2022-11-11T08:00:10;9.88;;;8.68;;
2750;SDS011;1383;48.362;10.908;2022-11-11T08:02:45;10.10;;;8.57;;
2750;SDS011;1383;48.362;10.908;2022-11-11T08:05:12;8.32;;;7.55;;
2750;SDS011;1383;48.362;10.908;2022-11-11T08:07:39;10.65;;;8.40;;
2750;SDS011;1383;48.362;10.908;2022-11-11T08:10:08;8.90;;;8.02;;
2750;SDS011;1383;48.362;10.908;2022-11-11T08:12:36;12.60;;;8.52;;
2750;SDS011;1383;48.362;10.908;2022-11-11T08:15:21;8.43;;;6.95;;
2750;SDS011;1383;48.362;10.908;2022-11-11T08:17:48;8.45;;;7.65;;
2750;SDS011;1383;48.362;10.908;2022-11-11T08:20:15;8.75;;;7.85;;
2750;SDS011;1383;48.362;10.908;2022-11-11T08:22:42;8.77;;;7.88;;
2750;SDS011;1383;48.362;10.908;2022-11-11T08:25:29;9.23;;;8.05;;
2750;SDS011;1383;48.362;10.908;2022-11-11T08:27:57;8.80;;;7.93;;
2750;SDS011;1383;48.362;10.908;2022-11-11T08:30:24;9.15;;;7.85;;
2750;SDS011;1383;48.362;10.908;2022-11-11T08:32:58;9.73;;;7.82;;
2750;SDS011;1383;48.362;10.908;2022-11-11T08:35:45;9.60;;;7.97;;
2750;SDS011;1383;48.362;10.908;2022-11-11T08:38:12;15.30;;;8.45;;
2750;SDS011;1383;48.362;10.908;2022-11-11T08:40:39;11.20;;;7.68;;
2750;SDS011;1383;48.362;10.908;2022-11-11T08:43:06;8.98;;;6.55;;
2750;SDS011;1383;48.362;10.908;2022-11-11T08:45:33;8.98;;;7.40;;
2750;SDS011;1383;48.362;10.908;2022-11-11T08:47:59;9.38;;;8.35;;
2750;SDS011;1383;48.362;10.908;2022-11-11T08:50:26;9.07;;;7.63;;
2750;SDS011;1383;48.362;10.908;2022-11-11T08:52:53;8.27;;;7.53;;
2750;SDS011;1383;48.362;10.908;2022-11-11T08:55:20;9.60;;;7.60;;
2750;SDS011;1383;48.362;10.908;2022-11-11T08:57:46;7.93;;;7.22;;
2750;SDS011;1383;48.362;10.908;2022-11-11T09:00:13;7.10;;;6.38;;
2750;SDS011;1383;48.362;10.908;2022-11-11T09:02:41;8.90;;;5.45;;
2750;SDS011;1383;48.362;10.908;2022-11-11T09:05:07;9.07;;;6.63;;
2750;SDS011;1383;48.362;10.908;2022-11-11T09:07:34;6.30;;;5.70;;
2750;SDS011;1383;48.362;10.908;2022-11-11T09:10:01;6.13;;;5.53;;
2750;SDS011;1383;48.362;10.908;2022-11-11T09:12:28;7.95;;;5.93;;
2750;SDS011;1383;48.362;10.908;2022-11-11T09:14:55;5.73;;;5.03;;
2750;SDS011;1383;48.362;10.908;2022-11-11T09:17:21;6.53;;;5.90;;
2750;SDS011;1383;48.362;10.908;2022-11-11T09:19:48;6.10;;;5.50;;
2750;SDS011;1383;48.362;10.908;2022-11-11T09:22:15;6.20;;;5.60;;
2750;SDS011;1383;48.362;10.908;2022-11-11T09:24:42;6.40;;;4.60;;
2750;SDS011;1383;48.362;10.908;2022-11-11T09:27:09;6.90;;;5.47;;
2750;SDS011;1383;48.362;10.908;2022-11-11T09:29:36;6.13;;;5.63;;
2750;SDS011;1383;48.362;10.908;2022-11-11T09:32:03;7.60;;;6.00;;
2750;SDS011;1383;48.362;10.908;2022-11-11T09:34:30;8.40;;;6.50;;
2750;SDS011;1383;48.362;10.908;2022-11-11T09:36:57;6.43;;;5.83;;
2750;SDS011;1383;48.362;10.908;2022-11-11T09:39:23;5.97;;;5.37;;
2750;SDS011;1383;48.362;10.908;2022-11-11T09:47:24;8.10;;;7.30;;
2750;SDS011;1383;48.362;10.908;2022-11-11T09:50:00;12.33;;;10.33;;
2750;SDS011;1383;48.362;10.908;2022-11-11T09:55:17;7.53;;;6.83;;
2750;SDS011;1383;48.362;10.908;2022-11-11T09:57:50;6.40;;;5.43;;
2750;SDS011;1383;48.362;10.908;2022-11-11T10:00:22;7.10;;;5.70;;
2750;SDS011;1383;48.362;10.908;2022-11-11T10:05:50;8.10;;;7.30;;
2750;SDS011;1383;48.362;10.908;2022-11-11T10:11:24;6.57;;;5.50;;
2750;SDS011;1383;48.362;10.908;2022-11-11T10:13:57;7.00;;;6.30;;
2750;SDS011;1383;48.362;10.908;2022-11-11T10:19:27;5.50;;;5.00;;
2750;SDS011;1383;48.362;10.908;2022-11-11T10:22:00;12.70;;;9.53;;
2750;SDS011;1383;48.362;10.908;2022-11-11T10:24:39;7.80;;;6.63;;
2750;SDS011;1383;48.362;10.908;2022-11-11T10:27:15;6.03;;;5.43;;
2750;SDS011;1383;48.362;10.908;2022-11-11T10:29:46;6.40;;;5.87;;
2750;SDS011;1383;48.362;10.908;2022-11-11T10:32:25;6.47;;;5.87;;
2750;SDS011;1383;48.362;10.908;2022-11-11T10:34:56;7.60;;;6.90;;
2750;SDS011;1383;48.362;10.908;2022-11-11T10:37:41;6.40;;;5.80;;
2750;SDS011;1383;48.362;10.908;2022-11-11T10:40:21;6.83;;;5.70;;
2750;SDS011;1383;48.362;10.908;2022-11-11T10:42:54;7.13;;;6.43;;
2750;SDS011;1383;48.362;10.908;2022-11-11T10:45:37;9.30;;;6.10;;
2750;SDS011;1383;48.362;10.908;2022-11-11T10:48:08;6.93;;;5.70;;
2750;SDS011;1383;48.362;10.908;2022-11-11T10:50:56;11.43;;;6.80;;
2750;SDS011;1383;48.362;10.908;2022-11-11T10:53:33;7.20;;;5.63;;
2750;SDS011;1383;48.362;10.908;2022-11-11T10:56:21;6.50;;;5.90;;
2750;SDS011;1383;48.362;10.908;2022-11-11T11:01:37;9.43;;;5.90;;
2750;SDS011;1383;48.362;10.908;2022-11-11T11:04:16;6.17;;;5.63;;
2750;SDS011;1383;48.362;10.908;2022-11-11T11:06:55;8.83;;;6.90;;
2750;SDS011;1383;48.362;10.908;2022-11-11T11:09:29;5.73;;;5.27;;
2750;SDS011;1383;48.362;10.908;2022-11-11T11:12:05;6.10;;;5.30;;
2750;SDS011;1383;48.362;10.908;2022-11-11T11:14:42;6.00;;;5.50;;
2750;SDS011;1383;48.362;10.908;2022-11-11T11:17:14;7.03;;;6.03;;
2750;SDS011;1383;48.362;10.908;2022-11-11T11:19:44;6.80;;;6.10;;
2750;SDS011;1383;48.362;10.908;2022-11-11T11:22:44;6.13;;;5.63;;
2750;SDS011;1383;48.362;10.908;2022-11-11T11:25:14;6.97;;;6.27;;
2750;SDS011;1383;48.362;10.908;2022-11-11T11:27:44;6.40;;;5.77;;
2750;SDS011;1383;48.362;10.908;2022-11-11T11:30:12;6.90;;;6.30;;
2750;SDS011;1383;48.362;10.908;2022-11-11T11:32:54;5.70;;;5.20;;
2750;SDS011;1383;48.362;10.908;2022-11-11T11:35:39;6.30;;;5.73;;
2750;SDS011;1383;48.362;10.908;2022-11-11T11:38:11;10.10;;;5.97;;
2750;SDS011;1383;48.362;10.908;2022-11-11T11:40:54;7.10;;;5.90;;
2750;SDS011;1383;48.362;10.908;2022-11-11T11:43:32;6.70;;;6.10;;
2750;SDS011;1383;48.362;10.908;2022-11-11T11:46:15;6.23;;;5.63;;
2750;SDS011;1383;48.362;10.908;2022-11-11T11:54:49;8.23;;;5.57;;
2750;SDS011;1383;48.362;10.908;2022-11-11T12:01:26;5.93;;;5.40;;
2750;SDS011;1383;48.362;10.908;2022-11-11T12:15:51;5.00;;;4.60;;
2750;SDS011;1383;48.362;10.908;2022-11-11T12:21:17;6.53;;;5.20;;
2750;SDS011;1383;48.362;10.908;2022-11-11T12:26:27;6.30;;;5.67;;
2750;SDS011;1383;48.362;10.908;2022-11-11T12:45:17;7.23;;;5.83;;
2750;SDS011;1383;48.362;10.908;2022-11-11T13:04:29;8.97;;;8.17;;
2750;SDS011;1383;48.362;10.908;2022-11-11T13:07:05;8.97;;;8.07;;
2750;SDS011;1383;48.362;10.908;2022-11-11T13:15:42;10.43;;;9.37;;
2750;SDS011;1383;48.362;10.908;2022-11-11T13:18:24;10.77;;;9.07;;
2750;SDS011;1383;48.362;10.908;2022-11-11T13:20:57;19.20;;;13.93;;
2750;SDS011;1383;48.362;10.908;2022-11-11T13:23:28;10.67;;;9.50;;
2750;SDS011;1383;48.362;10.908;2022-11-11T13:25:56;11.23;;;10.13;;
2750;SDS011;1383;48.362;10.908;2022-11-11T13:28:36;11.47;;;10.13;;
2750;SDS011;1383;48.362;10.908;2022-11-11T13:33:52;11.87;;;10.67;;
2750;SDS011;1383;48.362;10.908;2022-11-11T13:36:26;14.23;;;11.37;;
2750;SDS011;1383;48.362;10.908;2022-11-11T13:38:59;11.43;;;10.33;;
2750;SDS011;1383;48.362;10.908;2022-11-11T13:41:28;12.77;;;11.57;;
2750;SDS011;1383;48.362;10.908;2022-11-11T13:43:59;12.33;;;11.23;;
2750;SDS011;1383;48.362;10.908;2022-11-11T13:48:54;17.47;;;13.77;;
2750;SDS011;1383;48.362;10.908;2022-11-11T13:51:26;13.20;;;11.80;;
2750;SDS011;1383;48.362;10.908;2022-11-11T13:57:00;12.33;;;11.13;;
2750;SDS011;1383;48.362;10.908;2022-11-11T13:59:58;11.03;;;10.00;;
2750;SDS011;1383;48.362;10.908;2022-11-11T14:02:30;13.20;;;11.80;;
2750;SDS011;1383;48.362;10.908;2022-11-11T14:10:40;15.90;;;12.17;;
2750;SDS011;1383;48.362;10.908;2022-11-11T14:13:44;16.77;;;13.93;;
2750;SDS011;1383;48.362;10.908;2022-11-11T14:15:46;23.80;;;15.47;;
2750;SDS011;1383;48.362;10.908;2022-11-11T14:20:50;20.50;;;16.03;;
2750;SDS011;1383;48.362;10.908;2022-11-11T14:23:22;22.87;;;16.30;;
2750;SDS011;1383;48.362;10.908;2022-11-11T14:28:33;30.77;;;20.20;;
2750;SDS011;1383;48.362;10.908;2022-11-11T14:36:17;31.50;;;22.67;;
2750;SDS011;1383;48.362;10.908;2022-11-11T14:39:04;35.80;;;22.93;;
2750;SDS011;1383;48.362;10.908;2022-11-11T15:00:29;29.97;;;20.70;;
2750;SDS011;1383;48.362;10.908;2022-11-11T15:16:09;28.30;;;19.97;;
2750;SDS011;1383;48.362;10.908;2022-11-11T15:19:05;24.87;;;17.97;;
2750;SDS011;1383;48.362;10.908;2022-11-11T15:22:01;27.20;;;20.13;;
2750;SDS011;1383;48.362;10.908;2022-11-11T15:35:16;30.23;;;20.67;;
2750;SDS011;1383;48.362;10.908;2022-11-11T15:38:04;36.10;;;22.80;;
2750;SDS011;1383;48.362;10.908;2022-11-11T15:40:42;45.53;;;26.30;;
2750;SDS011;1383;48.362;10.908;2022-11-11T15:43:17;50.63;;;28.07;;
2750;SDS011;1383;48.362;10.908;2022-11-11T15:45:57;66.87;;;31.70;;
2750;SDS011;1383;48.362;10.908;2022-11-11T15:48:27;53.83;;;28.43;;
2750;SDS011;1383;48.362;10.908;2022-11-11T15:50:58;59.57;;;33.13;;
2750;SDS011;1383;48.362;10.908;2022-11-11T15:53:39;58.63;;;30.00;;
2750;SDS011;1383;48.362;10.908;2022-11-11T15:56:07;60.20;;;28.93;;
2750;SDS011;1383;48.362;10.908;2022-11-11T15:58:34;52.40;;;30.27;;
2750;SDS011;1383;48.362;10.908;2022-11-11T16:01:02;43.53;;;28.50;;
2750;SDS011;1383;48.362;10.908;2022-11-11T16:03:32;54.70;;;33.97;;
2750;SDS011;1383;48.362;10.908;2022-11-11T16:06:08;45.77;;;29.87;;
2750;SDS011;1383;48.362;10.908;2022-11-11T16:08:39;48.83;;;29.27;;
2750;SDS011;1383;48.362;10.908;2022-11-11T16:11:12;61.27;;;29.40;;
2750;SDS011;1383;48.362;10.908;2022-11-11T16:13:41;42.50;;;25.07;;
2750;SDS011;1383;48.362;10.908;2022-11-11T16:16:22;49.20;;;25.03;;
2750;SDS011;1383;48.362;10.908;2022-11-11T16:18:56;55.40;;;28.00;;
2750;SDS011;1383;48.362;10.908;2022-11-11T16:24:16;69.20;;;30.70;;
2750;SDS011;1383;48.362;10.908;2022-11-11T16:26:50;54.70;;;29.87;;
2750;SDS011;1383;48.362;10.908;2022-11-11T16:29:17;48.87;;;30.10;;
2750;SDS011;1383;48.362;10.908;2022-11-11T16:31:44;45.60;;;27.80;;
2750;SDS011;1383;48.362;10.908;2022-11-11T16:36:57;44.47;;;25.07;;
2750;SDS011;1383;48.362;10.908;2022-11-11T16:39:40;77.03;;;26.03;;
2750;SDS011;1383;48.362;10.908;2022-11-11T16:42:19;47.58;;;27.67;;
2750;SDS011;1383;48.362;10.908;2022-11-11T16:44:52;39.30;;;25.60;;
2750;SDS011;1383;48.362;10.908;2022-11-11T16:52:38;43.93;;;27.13;;
2750;SDS011;1383;48.362;10.908;2022-11-11T16:55:10;31.70;;;22.27;;
2750;SDS011;1383;48.362;10.908;2022-11-11T16:57:47;65.22;;;27.75;;
2750;SDS011;1383;48.362;10.908;2022-11-11T17:00:16;46.47;;;26.20;;
2750;SDS011;1383;48.362;10.908;2022-11-11T17:02:45;38.63;;;25.40;;
2750;SDS011;1383;48.362;10.908;2022-11-11T17:05:12;44.07;;;23.27;;
2750;SDS011;1383;48.362;10.908;2022-11-11T17:07:40;29.60;;;22.30;;
2750;SDS011;1383;48.362;10.908;2022-11-11T17:10:15;34.20;;;22.97;;
2750;SDS011;1383;48.362;10.908;2022-11-11T17:12:45;36.00;;;24.27;;
2750;SDS011;1383;48.362;10.908;2022-11-11T17:15:13;38.10;;;25.00;;
2750;SDS011;1383;48.362;10.908;2022-11-11T17:17:42;43.27;;;24.37;;
2750;SDS011;1383;48.362;10.908;2022-11-11T17:22:51;43.13;;;22.40;;
2750;SDS011;1383;48.362;10.908;2022-11-11T17:25:19;44.00;;;22.97;;
2750;SDS011;1383;48.362;10.908;2022-11-11T17:27:46;51.40;;;24.40;;
2750;SDS011;1383;48.362;10.908;2022-11-11T17:30:13;35.60;;;23.47;;
2750;SDS011;1383;48.362;10.908;2022-11-11T17:32:40;43.92;;;22.92;;
2750;SDS011;1383;48.362;10.908;2022-11-11T17:35:08;38.10;;;22.83;;
2750;SDS011;1383;48.362;10.908;2022-11-11T17:37:37;44.43;;;23.80;;
2750;SDS011;1383;48.362;10.908;2022-11-11T17:40:08;69.77;;;30.03;;
2750;SDS011;1383;48.362;10.908;2022-11-11T17:42:36;45.47;;;24.40;;
2750;SDS011;1383;48.362;10.908;2022-11-11T17:45:04;48.70;;;28.90;;
2750;SDS011;1383;48.362;10.908;2022-11-11T17:47:31;62.60;;;29.27;;
2750;SDS011;1383;48.362;10.908;2022-11-11T17:50:02;70.72;;;27.77;;
2750;SDS011;1383;48.362;10.908;2022-11-11T17:52:28;53.97;;;26.27;;
2750;SDS011;1383;48.362;10.908;2022-11-11T17:54:55;43.97;;;26.63;;
2750;SDS011;1383;48.362;10.908;2022-11-11T17:57:22;38.63;;;26.53;;
2750;SDS011;1383;48.362;10.908;2022-11-11T17:59:49;49.40;;;27.03;;
2750;SDS011;1383;48.362;10.908;2022-11-11T18:02:15;43.80;;;28.47;;
2750;SDS011;1383;48.362;10.908;2022-11-11T18:04:42;45.50;;;26.77;;
2750;SDS011;1383;48.362;10.908;2022-11-11T18:07:09;41.70;;;28.87;;
2750;SDS011;1383;48.362;10.908;2022-11-11T18:09:36;37.77;;;26.17;;
2750;SDS011;1383;48.362;10.908;2022-11-11T18:12:03;40.03;;;28.93;;